This is the latest recevied weather packets stored in our database for station/object W4CAT-13. If no packets are shown the sender has not sent any weather packets the latest 1 day(s).
| Time | Temp. | Humidity | Pressure | Rain* | Wind** | Luminosity | Snow |
|---|---|---|---|---|---|---|---|
| 1778021118 | 21.11° C | 50% | 971.9 hPa | 0 mm | 3.13 m/s, 248° | - | - |
| 1778020218 | 21.67° C | 50% | 971.9 hPa | 0 mm | 2.24 m/s, 230° | - | - |
| 1778019288 | 21.67° C | 52% | 971.6 hPa | 0 mm | 2.24 m/s, 215° | - | - |
| 1778018388 | 22.22° C | 49% | 972.2 hPa | 0 mm | 3.13 m/s, 211° | - | - |
| 1778017488 | 22.78° C | 47% | 972.2 hPa | 0 mm | 4.47 m/s, 250° | - | - |
| 1778016588 | 22.78° C | 46% | 972 hPa | 0 mm | 4.02 m/s, 221° | - | - |
| 1778015687 | 22.78° C | 47% | 971.8 hPa | 0 mm | 4.02 m/s, 220° | - | - |
| 1778014788 | 22.78° C | 47% | 971.6 hPa | 0 mm | 1.34 m/s, 257° | - | - |
| 1778013887 | 22.78° C | 49% | 971.9 hPa | 0 mm | 3.13 m/s, 227° | - | - |
| 1778012988 | 22.78° C | 50% | 972.6 hPa | 0 mm | 3.58 m/s, 195° | - | - |
| 1778012087 | 22.22° C | 49% | 972.6 hPa | 0 mm | 3.13 m/s, 235° | - | - |
| 1778011188 | 22.22° C | 48% | 972.9 hPa | 0 mm | 3.13 m/s, 240° | - | - |
| 1778010287 | 22.78° C | 48% | 973.2 hPa | 0 mm | 2.68 m/s, 200° | - | - |
| 1778009387 | 22.22° C | 49% | 973.2 hPa | 0 mm | 2.24 m/s, 241° | - | - |
| 1778008487 | 21.67° C | 51% | 973.9 hPa | 0 mm | 4.02 m/s, 176° | - | - |
| 1778007558 | 20.56° C | 56% | 973.9 hPa | 0 mm | 3.13 m/s, 222° | - | - |
| 1777974665 | 14.44° C | 73% | 973.9 hPa | 0 mm | 1.34 m/s, 239° | - | - |
| 1777973735 | 15° C | 72% | 973.6 hPa | 0 mm | 1.34 m/s, 220° | - | - |
| 1777972806 | 15.56° C | 70% | 973.6 hPa | 0 mm | 1.34 m/s, 225° | - | - |
| 1777971875 | 15.56° C | 68% | 973.9 hPa | 0 mm | 1.34 m/s, 219° | - | - |
| 1777970946 | 16.11° C | 67% | 973.9 hPa | 0 mm | 2.24 m/s, 212° | - | - |
| 1777970015 | 16.11° C | 65% | 973.6 hPa | 0 mm | 2.24 m/s, 219° | - | - |
| 1777969085 | 16.67° C | 64% | 973.6 hPa | 0 mm | 2.24 m/s, 223° | - | - |
| 1777968276 | 16.67° C | 64% | 973.6 hPa | 0 mm | 2.68 m/s, 226° | - | - |
| 1777968155 | 16.67° C | 64% | 973.6 hPa | 0 mm | 2.68 m/s, 226° | - | - |
* Rain latest hour (hover to see other rain measurements)
** Current wind speed in m/s (hover to see current wind gust speed)